createdAt,value
2019-04-05T00:00:40.975Z,7.03
2019-04-05T00:03:10.184Z,6.17
2019-04-05T00:05:39.386Z,7.20
2019-04-05T00:08:08.893Z,6.53
2019-04-05T00:10:38.080Z,7.23
2019-04-05T00:13:08.245Z,7.43
2019-04-05T00:15:38.141Z,6.73
2019-04-05T00:18:07.420Z,7.20
2019-04-05T00:20:36.625Z,7.30
2019-04-05T00:23:05.986Z,7.50
2019-04-05T00:25:35.281Z,7.50
2019-04-05T00:28:04.486Z,7.20
2019-04-05T00:30:33.878Z,6.63
2019-04-05T00:33:03.103Z,6.83
2019-04-05T00:35:32.358Z,6.87
2019-04-05T00:38:01.756Z,6.50
2019-04-05T00:40:30.955Z,6.43
2019-04-05T00:43:00.177Z,6.87
2019-04-05T00:45:29.614Z,6.73
2019-04-05T00:47:59.009Z,7.00
2019-04-05T00:50:28.607Z,7.60
2019-04-05T00:52:58.574Z,6.73
2019-04-05T00:55:27.772Z,7.17
2019-04-05T00:57:56.971Z,7.13
2019-04-05T01:00:26.342Z,6.97
2019-04-05T01:02:55.551Z,6.80
2019-04-05T01:05:24.767Z,7.10
2019-04-05T01:07:55.059Z,6.33
2019-04-05T01:10:24.272Z,6.40
2019-04-05T01:12:53.603Z,7.10
2019-04-05T01:15:23.164Z,7.60
2019-04-05T01:17:53.378Z,7.20
2019-04-05T01:20:25.758Z,7.00
2019-04-05T01:22:55.738Z,6.97
2019-04-05T01:25:26.607Z,6.73
2019-04-05T01:27:55.811Z,7.60
2019-04-05T01:30:25.246Z,6.93
2019-04-05T01:32:54.617Z,7.10
2019-04-05T01:35:23.823Z,7.03
2019-04-05T01:37:53.673Z,6.93
2019-04-05T01:40:24.387Z,6.87
2019-04-05T01:42:53.997Z,6.90
2019-04-05T01:45:23.371Z,6.67
2019-04-05T01:47:52.573Z,6.43
2019-04-05T01:50:21.780Z,6.40
2019-04-05T01:52:51.369Z,7.40
2019-04-05T01:55:22.074Z,7.43
2019-04-05T01:57:51.270Z,7.43
2019-04-05T02:00:21.106Z,7.50
2019-04-05T02:02:50.316Z,6.47
2019-04-05T02:05:19.518Z,7.40
2019-04-05T02:07:48.910Z,7.30
2019-04-05T02:10:18.738Z,6.60
2019-04-05T02:12:48.341Z,7.57
2019-04-05T02:15:27.678Z,7.47
2019-04-05T02:17:57.593Z,7.03
2019-04-05T02:20:27.007Z,7.60
2019-04-05T02:22:56.790Z,8.67
2019-04-05T02:25:26.279Z,7.53
2019-04-05T02:27:55.505Z,7.20
2019-04-05T02:30:24.997Z,7.40
2019-04-05T02:32:54.219Z,7.80
2019-04-05T02:35:23.751Z,8.20
2019-04-05T02:37:53.215Z,7.00
2019-04-05T02:40:25.131Z,7.70
2019-04-05T02:42:57.489Z,7.40
2019-04-05T02:45:32.298Z,7.23
2019-04-05T02:48:04.815Z,8.70
2019-04-05T02:50:37.306Z,7.13
2019-04-05T02:53:09.579Z,7.80
2019-04-05T02:55:41.133Z,7.33
2019-04-05T02:58:12.773Z,7.90
2019-04-05T03:00:42.522Z,7.70
2019-04-05T03:03:12.411Z,7.20
2019-04-05T03:05:42.540Z,7.47
2019-04-05T03:08:12.298Z,8.10
2019-04-05T03:11:14.010Z,7.67
2019-04-05T03:13:51.405Z,7.73
2019-04-05T03:16:39.334Z,7.93
2019-04-05T03:19:07.027Z,7.00
2019-04-05T03:21:39.504Z,7.40
2019-04-05T03:24:10.784Z,7.50
2019-04-05T03:26:43.148Z,7.70
2019-04-05T03:29:12.754Z,7.83
2019-04-05T03:31:41.977Z,7.93
2019-04-05T03:34:11.400Z,7.93
2019-04-05T03:36:41.020Z,8.20
2019-04-05T03:39:10.552Z,7.37
2019-04-05T03:41:40.429Z,7.53
2019-04-05T03:44:11.273Z,7.37
2019-04-05T03:46:55.249Z,7.90
2019-04-05T03:49:12.813Z,8.47
2019-04-05T03:51:42.231Z,6.97
2019-04-05T03:54:11.885Z,7.87
2019-04-05T03:56:41.585Z,8.23
2019-04-05T03:59:11.256Z,8.20
2019-04-05T04:01:40.638Z,8.37
2019-04-05T04:04:10.156Z,8.50
2019-04-05T04:06:39.404Z,8.63
2019-04-05T04:09:08.962Z,8.57
2019-04-05T04:11:38.473Z,8.40
2019-04-05T04:14:08.675Z,8.73
2019-04-05T04:16:37.939Z,9.10
2019-04-05T04:19:07.914Z,8.83
2019-04-05T04:22:04.161Z,9.47
2019-04-05T04:24:33.639Z,9.53
2019-04-05T04:27:02.833Z,9.00
2019-04-05T04:29:32.106Z,8.40
2019-04-05T04:32:01.558Z,9.80
2019-04-05T04:34:31.799Z,10.57
2019-04-05T04:37:01.329Z,8.77
2019-04-05T04:39:31.118Z,9.03
2019-04-05T04:42:01.414Z,7.57
2019-04-05T04:44:30.961Z,8.93
2019-04-05T04:47:00.416Z,8.33
2019-04-05T04:49:30.019Z,9.07
2019-04-05T04:52:00.185Z,9.10
2019-04-05T04:54:29.825Z,9.30
2019-04-05T04:56:59.578Z,9.70
2019-04-05T04:59:29.166Z,8.40
2019-04-05T05:01:58.580Z,9.73
2019-04-05T05:04:28.172Z,9.97
2019-04-05T05:06:57.432Z,9.70
2019-04-05T05:09:27.302Z,9.53
2019-04-05T05:11:56.505Z,9.20
2019-04-05T05:14:25.852Z,9.00
2019-04-05T05:16:55.601Z,8.63
2019-04-05T05:19:24.921Z,9.93
2019-04-05T05:21:54.256Z,9.13
2019-04-05T05:24:24.269Z,9.80
2019-04-05T05:26:53.668Z,9.30
2019-04-05T05:29:22.911Z,9.10
2019-04-05T05:31:53.035Z,8.13
2019-04-05T05:34:22.527Z,8.37
2019-04-05T05:36:52.359Z,8.87
2019-04-05T05:39:22.371Z,8.93
2019-04-05T05:41:51.597Z,9.77
2019-04-05T05:44:20.862Z,9.17
2019-04-05T05:46:50.184Z,8.50
2019-04-05T05:49:19.384Z,9.57
2019-04-05T05:51:49.795Z,8.80
2019-04-05T05:54:18.978Z,8.23
2019-04-05T05:56:48.269Z,8.03
2019-04-05T05:59:18.007Z,9.90
2019-04-05T06:01:47.253Z,8.13
2019-04-05T06:04:16.457Z,7.43
2019-04-05T06:06:45.791Z,12.57
2019-04-05T06:09:14.995Z,9.67
2019-04-05T06:11:44.199Z,11.07
2019-04-05T06:14:13.586Z,10.30
2019-04-05T06:19:13.712Z,7.90
2019-04-05T06:21:43.227Z,7.37
2019-04-05T06:24:12.436Z,7.80
2019-04-05T06:26:41.708Z,7.80
2019-04-05T06:29:11.040Z,7.33
2019-04-05T06:31:40.236Z,7.53
2019-04-05T06:34:09.563Z,9.43
2019-04-05T06:35:39.558Z,9.37
2019-04-05T06:36:38.922Z,8.13
2019-04-05T06:39:08.796Z,9.10
2019-04-05T06:41:38.011Z,7.30
2019-04-05T06:44:07.544Z,7.97
2019-04-05T06:46:36.767Z,7.40
2019-04-05T06:49:05.984Z,8.03
2019-04-05T06:51:35.440Z,7.40
2019-04-05T06:54:04.646Z,8.37
2019-04-05T06:56:33.932Z,7.80
2019-04-05T06:59:03.558Z,8.07
2019-04-05T07:01:33.044Z,8.23
2019-04-05T07:04:02.279Z,7.70
2019-04-05T07:06:31.855Z,7.50
2019-04-05T07:09:01.063Z,7.93
2019-04-05T07:11:30.287Z,7.20
2019-04-05T07:13:59.601Z,7.67
2019-04-05T07:16:28.809Z,8.10
2019-04-05T07:18:58.017Z,7.63
2019-04-05T07:21:27.395Z,8.40
2019-04-05T07:23:56.686Z,7.87
2019-04-05T07:26:25.886Z,9.03
2019-04-05T07:28:55.355Z,7.67
2019-04-05T07:31:24.552Z,7.33
2019-04-05T07:33:56.075Z,10.23
2019-04-05T07:36:24.870Z,8.23
2019-04-05T07:38:54.563Z,7.50
2019-04-05T07:41:23.766Z,8.80
2019-04-05T07:43:53.302Z,8.10
2019-04-05T07:46:22.515Z,7.77
2019-04-05T07:48:51.716Z,8.03
2019-04-05T07:51:22.689Z,7.80
2019-04-05T07:53:52.575Z,7.73
2019-04-05T07:56:21.935Z,7.07
2019-04-05T07:58:51.240Z,7.23
2019-04-05T08:01:20.777Z,7.30
2019-04-05T08:03:50.279Z,7.70
2019-04-05T08:06:19.664Z,7.47
2019-04-05T08:09:16.672Z,6.90
2019-04-05T08:11:47.230Z,7.83
2019-04-05T08:14:19.321Z,7.10
2019-04-05T08:16:48.637Z,6.90
2019-04-05T08:19:17.924Z,7.80
2019-04-05T08:21:47.276Z,7.03
2019-04-05T08:24:16.572Z,7.20
2019-04-05T08:26:45.809Z,7.13
2019-04-05T08:29:15.412Z,7.37
2019-04-05T08:31:44.609Z,7.87
2019-04-05T08:34:13.836Z,7.43
2019-04-05T08:36:43.337Z,7.53
2019-04-05T08:39:12.521Z,8.07
2019-04-05T08:41:41.813Z,7.37
2019-04-05T08:44:11.378Z,7.70
2019-04-05T08:46:40.582Z,7.77
2019-04-05T08:49:11.347Z,7.57
2019-04-05T08:51:40.880Z,7.43
2019-04-05T08:54:10.219Z,8.03
2019-04-05T08:56:39.462Z,7.90
2019-04-05T08:59:08.958Z,8.10
2019-04-05T09:01:38.148Z,7.23
2019-04-05T09:04:07.763Z,8.13
2019-04-05T09:06:37.168Z,7.77
2019-04-05T09:09:07.921Z,7.30
2019-04-05T09:11:37.576Z,7.87
2019-04-05T09:14:06.876Z,7.43
2019-04-05T09:16:36.076Z,7.50
2019-04-05T09:19:05.332Z,7.03
2019-04-05T09:21:34.823Z,7.33
2019-04-05T09:24:04.040Z,7.63
2019-04-05T09:26:33.634Z,7.40
2019-04-05T09:29:02.984Z,7.63
2019-04-05T09:31:32.188Z,7.27
2019-04-05T09:34:01.635Z,7.23
2019-04-05T09:36:31.115Z,7.60
2019-04-05T09:39:00.331Z,7.13
2019-04-05T09:41:29.596Z,8.00
2019-04-05T09:43:58.929Z,7.23
2019-04-05T09:46:28.127Z,6.70
2019-04-05T09:48:57.433Z,7.17
2019-04-05T09:51:26.911Z,7.63
2019-04-05T09:53:56.114Z,6.83
2019-04-05T09:56:26.615Z,7.63
2019-04-05T09:58:56.252Z,8.17
2019-04-05T10:01:25.477Z,7.10
2019-04-05T10:03:54.801Z,7.10
2019-04-05T10:06:25.288Z,7.70
2019-04-05T10:08:54.518Z,7.07
2019-04-05T10:11:23.787Z,7.43
2019-04-05T10:13:53.279Z,7.63
2019-04-05T10:16:22.476Z,8.20
2019-04-05T10:18:51.733Z,8.30
2019-04-05T10:21:21.284Z,8.30
2019-04-05T10:23:50.481Z,8.40
2019-04-05T10:26:19.734Z,8.20
2019-04-05T10:28:49.036Z,7.63
2019-04-05T10:31:18.273Z,8.33
2019-04-05T10:33:47.501Z,9.13
2019-04-05T10:36:19.849Z,7.97
2019-04-05T10:38:47.921Z,8.10
2019-04-05T10:41:17.179Z,7.87
2019-04-05T10:43:46.485Z,9.17
2019-04-05T10:46:15.811Z,8.30
2019-04-05T10:48:45.017Z,8.10
2019-04-05T10:51:14.301Z,8.60
2019-04-05T10:53:43.507Z,8.57
2019-04-05T10:56:12.784Z,8.77
2019-04-05T10:58:42.139Z,8.93
2019-04-05T11:01:11.330Z,8.63
2019-04-05T11:03:40.644Z,8.97
2019-04-05T11:06:10.055Z,8.20
2019-04-05T11:08:39.371Z,9.13
2019-04-05T11:11:08.652Z,9.17
2019-04-05T11:13:37.932Z,9.47
2019-04-05T11:16:07.190Z,8.27
2019-04-05T11:18:36.456Z,8.70
2019-04-05T11:21:05.958Z,8.83
2019-04-05T11:23:35.191Z,8.57
2019-04-05T11:26:04.471Z,9.43
2019-04-05T11:28:34.128Z,8.40
2019-04-05T11:31:03.348Z,9.33
2019-04-05T11:33:32.591Z,9.03
2019-04-05T11:36:02.533Z,8.87
2019-04-05T11:38:31.938Z,8.33
2019-04-05T11:41:01.900Z,7.90
2019-04-05T11:43:32.677Z,8.63
2019-04-05T11:46:02.358Z,8.87
2019-04-05T11:48:32.739Z,9.07
2019-04-05T11:51:02.114Z,8.23
2019-04-05T11:53:31.348Z,7.80
2019-04-05T11:56:13.465Z,8.23
2019-04-05T11:58:31.759Z,9.10
2019-04-05T12:01:11.353Z,9.30
2019-04-05T12:03:41.526Z,8.90
2019-04-05T12:06:10.746Z,9.17
2019-04-05T12:08:40.005Z,8.50
2019-04-05T12:11:09.731Z,8.13
2019-04-05T12:13:38.942Z,8.30
2019-04-05T12:16:10.489Z,7.77
2019-04-05T12:18:39.565Z,9.07
2019-04-05T12:21:08.836Z,7.30
2019-04-05T12:23:38.434Z,8.47
2019-04-05T12:26:07.898Z,8.80
2019-04-05T12:28:37.103Z,8.40
2019-04-05T12:31:06.373Z,7.70
2019-04-05T12:33:35.783Z,8.20
2019-04-05T12:36:05.129Z,8.00
2019-04-05T12:38:34.539Z,8.37
2019-04-05T12:41:05.154Z,8.47
2019-04-05T12:43:34.441Z,8.60
2019-04-05T12:46:04.724Z,8.47
2019-04-05T12:48:34.079Z,8.10
2019-04-05T12:51:05.418Z,8.30
2019-04-05T12:53:34.334Z,8.17
2019-04-05T12:56:04.083Z,8.37
2019-04-05T12:58:33.319Z,8.47
2019-04-05T13:01:02.609Z,7.83
2019-04-05T13:03:32.065Z,8.23
2019-04-05T13:06:01.312Z,8.57
2019-04-05T13:08:30.587Z,8.40
2019-04-05T13:10:59.891Z,7.80
2019-04-05T13:13:29.215Z,7.43
2019-04-05T13:15:59.545Z,9.83
2019-04-05T13:18:31.573Z,9.03
2019-04-05T13:21:01.129Z,8.67
2019-04-05T13:23:31.446Z,7.80
2019-04-05T13:26:00.653Z,7.93
2019-04-05T13:28:29.847Z,8.13
2019-04-05T13:30:59.170Z,8.67
2019-04-05T13:33:29.085Z,8.50
2019-04-05T13:35:58.768Z,8.27
2019-04-05T13:38:29.802Z,7.87
2019-04-05T13:41:01.260Z,7.80
2019-04-05T13:43:31.994Z,8.20
2019-04-05T13:46:01.128Z,8.17
2019-04-05T13:48:30.331Z,9.23
2019-04-05T13:50:59.717Z,9.05
2019-04-05T13:53:28.965Z,8.53
2019-04-05T13:55:58.200Z,8.97
2019-04-05T13:58:27.645Z,8.40
2019-04-05T14:00:56.909Z,7.67
2019-04-05T14:03:26.126Z,7.92
2019-04-05T14:05:55.541Z,8.43
2019-04-05T14:08:24.851Z,8.55
2019-04-05T14:10:54.049Z,8.20
2019-04-05T14:13:23.535Z,8.13
2019-04-05T14:15:52.858Z,9.40
2019-04-05T14:18:22.077Z,8.93
2019-04-05T14:20:51.464Z,8.57
2019-04-05T14:23:23.184Z,9.28
2019-04-05T14:25:51.612Z,8.43
2019-04-05T14:28:20.924Z,7.90
2019-04-05T14:30:50.171Z,8.98
2019-04-05T14:33:19.381Z,8.88
2019-04-05T14:35:48.775Z,8.93
2019-04-05T14:38:18.408Z,8.13
2019-04-05T14:40:50.148Z,8.43
2019-04-05T14:43:21.356Z,9.03
2019-04-05T14:45:50.336Z,7.12
2019-04-05T14:48:19.690Z,7.92
2019-04-05T14:50:48.893Z,7.80
2019-04-05T14:53:18.382Z,8.28
2019-04-05T14:55:47.996Z,8.28
2019-04-05T14:58:19.253Z,8.18
2019-04-05T15:00:48.451Z,8.80
2019-04-05T15:03:18.145Z,9.07
2019-04-05T15:05:47.349Z,7.83
2019-04-05T15:08:20.426Z,7.73
2019-04-05T15:10:48.043Z,7.93
2019-04-05T15:13:17.302Z,7.90
2019-04-05T15:15:46.597Z,7.90
2019-04-05T15:18:16.106Z,7.93
2019-04-05T15:20:45.373Z,7.67
2019-04-05T15:23:14.899Z,8.07
2019-04-05T15:25:44.111Z,8.47
2019-04-05T15:28:13.310Z,8.30
2019-04-05T15:30:42.644Z,8.53
2019-04-05T15:33:11.850Z,8.47
2019-04-05T15:35:41.063Z,8.17
2019-04-05T15:38:10.396Z,7.70
2019-04-05T15:40:39.626Z,8.27
2019-04-05T15:43:08.789Z,8.23
2019-04-05T15:45:38.235Z,8.23
2019-04-05T15:48:07.456Z,8.27
2019-04-05T15:50:36.688Z,8.53
2019-04-05T15:53:06.288Z,7.87
2019-04-05T15:55:35.498Z,7.80
2019-04-05T15:58:04.813Z,9.03
2019-04-05T16:00:44.834Z,8.10
2019-04-05T16:03:14.528Z,8.17
2019-04-05T16:05:45.027Z,7.60
2019-04-05T16:08:17.265Z,7.53
2019-04-05T16:10:46.501Z,8.13
2019-04-05T16:13:15.725Z,7.80
2019-04-05T16:15:45.091Z,8.43
2019-04-05T16:18:14.345Z,8.33
2019-04-05T16:20:43.719Z,8.90
2019-04-05T16:23:13.096Z,8.10
2019-04-05T16:25:42.326Z,7.67
2019-04-05T16:28:11.543Z,8.50
2019-04-05T16:30:41.074Z,8.20
2019-04-05T16:33:10.350Z,8.10
2019-04-05T16:35:39.558Z,8.20
2019-04-05T16:38:09.052Z,7.73
2019-04-05T16:40:38.414Z,8.13
2019-04-05T16:43:07.564Z,7.70
2019-04-05T16:45:38.560Z,7.03
2019-04-05T16:48:08.151Z,7.43
2019-04-05T16:50:37.345Z,7.47
2019-04-05T16:53:06.814Z,7.13
2019-04-05T16:55:36.419Z,6.93
2019-04-05T16:58:05.693Z,8.03
2019-04-05T17:00:35.141Z,7.23
2019-04-05T17:03:04.487Z,6.50
2019-04-05T17:05:33.731Z,7.63
2019-04-05T17:08:03.100Z,7.63
2019-04-05T17:10:32.415Z,7.30
2019-04-05T17:13:01.686Z,7.00
2019-04-05T17:15:31.136Z,8.43
2019-04-05T17:18:00.401Z,7.53
2019-04-05T17:20:29.697Z,7.03
2019-04-05T17:22:59.245Z,7.03
2019-04-05T17:25:28.569Z,7.50
2019-04-05T17:27:58.003Z,6.97
2019-04-05T17:30:27.619Z,7.47
2019-04-05T17:32:56.843Z,7.37
2019-04-05T17:35:26.167Z,8.07
2019-04-05T17:37:55.539Z,8.13
2019-04-05T17:40:24.807Z,7.70
2019-04-05T17:42:54.045Z,7.90
2019-04-05T17:45:23.725Z,7.93
2019-04-05T17:47:53.059Z,8.47
2019-04-05T17:50:31.991Z,8.67
2019-04-05T17:53:11.972Z,8.87
2019-04-05T17:55:32.406Z,8.93
2019-04-05T17:58:03.635Z,8.53
2019-04-05T18:00:32.902Z,9.23
2019-04-05T18:03:02.197Z,8.07
2019-04-05T18:05:31.566Z,9.00
2019-04-05T18:08:00.833Z,9.30
2019-04-05T18:10:30.105Z,9.50
2019-04-05T18:12:59.675Z,8.07
2019-04-05T18:15:29.004Z,9.37
2019-04-05T18:17:58.240Z,9.40
2019-04-05T18:20:27.655Z,9.60
2019-04-05T18:22:56.953Z,8.80
2019-04-05T18:25:26.296Z,9.50
2019-04-05T18:27:55.780Z,9.07
2019-04-05T18:30:25.099Z,9.07
2019-04-05T18:32:54.415Z,8.93
2019-04-05T18:35:23.886Z,9.17
2019-04-05T18:37:53.127Z,8.50
2019-04-05T18:40:22.379Z,8.90
2019-04-05T18:42:51.888Z,8.73
2019-04-05T18:45:21.334Z,8.97
2019-04-05T18:47:50.609Z,9.70
2019-04-05T18:50:20.094Z,9.40
2019-04-05T18:52:49.363Z,9.17
2019-04-05T18:55:18.642Z,9.60
2019-04-05T18:57:48.086Z,8.43
2019-04-05T19:00:17.461Z,9.03
2019-04-05T19:02:46.693Z,9.43
2019-04-05T19:05:16.540Z,9.00
2019-04-05T19:07:45.905Z,9.23
2019-04-05T19:10:15.323Z,9.33
2019-04-05T19:12:44.882Z,9.27
2019-04-05T19:15:14.393Z,10.00
2019-04-05T19:17:43.657Z,9.23
2019-04-05T19:20:13.225Z,9.20
2019-04-05T19:22:42.419Z,9.87
2019-04-05T19:25:11.688Z,9.87
2019-04-05T19:27:41.444Z,9.57
2019-04-05T19:50:20.667Z,9.50
2019-04-05T19:52:49.971Z,10.10
2019-04-05T19:55:19.225Z,10.27
2019-04-05T19:57:48.766Z,9.40
2019-04-05T20:00:18.929Z,10.00
2019-04-05T20:02:47.974Z,9.80
2019-04-05T20:05:17.305Z,9.30
2019-04-05T20:07:47.007Z,10.13
2019-04-05T20:10:16.253Z,9.37
2019-04-05T20:12:46.179Z,8.90
2019-04-05T20:15:16.147Z,9.97
2019-04-05T20:17:45.385Z,10.13
2019-04-05T20:20:15.865Z,9.47
2019-04-05T20:22:45.402Z,9.40
2019-04-05T20:25:14.731Z,8.83
2019-04-05T20:27:44.010Z,9.53
2019-04-05T20:30:13.499Z,10.87
2019-04-05T20:32:42.725Z,9.80
2019-04-05T20:35:12.158Z,10.23
2019-04-05T20:37:41.585Z,9.77
2019-04-05T20:40:11.169Z,10.00
2019-04-05T20:42:40.477Z,10.37
2019-04-05T20:45:09.912Z,10.53
2019-04-05T20:47:39.267Z,10.17
2019-04-05T20:50:08.707Z,10.33
2019-04-05T20:52:38.072Z,10.07
2019-04-05T20:55:07.452Z,9.73
2019-04-05T20:57:36.746Z,10.83
2019-04-05T21:00:07.460Z,9.60
2019-04-05T21:02:36.742Z,10.10
2019-04-05T21:05:06.283Z,10.60
2019-04-05T21:07:35.639Z,10.03
2019-04-05T21:10:05.464Z,9.60
2019-04-05T21:12:34.708Z,10.47
2019-04-05T21:15:04.551Z,10.87
2019-04-05T21:17:33.775Z,10.07
2019-04-05T21:20:03.023Z,10.13
2019-04-05T21:22:32.315Z,10.83
2019-04-05T21:25:01.494Z,10.00
2019-04-05T21:27:30.761Z,11.10
2019-04-05T21:30:00.128Z,10.60
2019-04-05T21:32:29.425Z,10.10
2019-04-05T21:34:58.659Z,11.07
2019-04-05T21:37:28.059Z,11.30
2019-04-05T21:39:57.243Z,10.90
2019-04-05T21:42:26.487Z,11.43
2019-04-05T21:44:55.928Z,10.47
2019-04-05T21:47:25.118Z,10.77
2019-04-05T21:49:54.436Z,10.67
2019-04-05T21:52:23.778Z,10.93
2019-04-05T21:54:52.952Z,11.37
2019-04-05T21:57:22.203Z,11.33
2019-04-05T21:59:52.043Z,10.97
2019-04-05T22:02:21.341Z,10.83
2019-04-05T22:04:50.588Z,11.27
2019-04-05T22:07:20.119Z,12.03
2019-04-05T22:09:49.346Z,11.53
2019-04-05T22:12:19.627Z,10.80
2019-04-05T22:17:37.393Z,11.17
2019-04-05T22:20:07.807Z,11.37
2019-04-05T22:22:37.040Z,12.17
2019-04-05T22:25:08.103Z,11.77
2019-04-05T22:27:37.487Z,12.27
2019-04-05T22:30:08.015Z,11.80
2019-04-05T22:32:37.461Z,10.97
2019-04-05T22:35:06.940Z,11.10
2019-04-05T22:37:36.213Z,12.03
2019-04-05T22:40:06.355Z,12.70
2019-04-05T22:42:35.681Z,12.20
2019-04-05T22:45:05.346Z,12.00
2019-04-05T22:47:34.674Z,12.43
2019-04-05T22:50:03.938Z,12.67
2019-04-05T22:52:33.116Z,13.13
2019-04-05T22:55:11.160Z,11.90
2019-04-05T22:57:33.581Z,12.50
2019-04-05T23:00:02.900Z,12.67
2019-04-05T23:02:32.115Z,12.70
2019-04-05T23:05:01.594Z,13.27
2019-04-05T23:07:30.762Z,13.37
2019-04-05T23:09:59.990Z,12.77
2019-04-05T23:12:29.380Z,12.87
2019-04-05T23:14:58.576Z,12.77
2019-04-05T23:17:27.819Z,14.13
2019-04-05T23:19:57.361Z,12.93
2019-04-05T23:22:26.813Z,13.00
2019-04-05T23:24:56.062Z,14.27
2019-04-05T23:27:25.486Z,13.00
2019-04-05T23:29:54.843Z,14.00
2019-04-05T23:32:24.189Z,13.87
2019-04-05T23:34:53.519Z,15.10
2019-04-05T23:37:22.708Z,14.53
2019-04-05T23:39:51.934Z,13.73
2019-04-05T23:42:21.603Z,13.80
2019-04-05T23:44:50.794Z,14.07
2019-04-05T23:47:20.038Z,14.53
2019-04-05T23:49:49.441Z,15.43
2019-04-05T23:52:18.573Z,14.83
2019-04-05T23:54:47.814Z,14.77
2019-04-05T23:57:17.197Z,14.90
2019-04-05T23:59:46.397Z,15.03
